Time;durP1;ratioP1;P1;durP2;ratioP2;P2;SDS_P1;SDS_P2;PMS_P1;PMS_P2;Temp;Humidity;BMP_temperature;BMP_pressure;BME280_temperature;BME280_humidity;BME280_pressure;Samples;Min_cycle;Max_cycle;Signal;HPM_P1;HPM_P2
2022/04/26 03:37:17;;;;;;;17.52;8.55;;;7.90;99.90;;;;;;4955724;28;20043;-61
2022/04/26 03:39:43;;;;;;;14.30;6.25;;;7.90;99.90;;;;;;4938278;29;20050;-61
2022/04/26 03:42:09;;;;;;;13.00;7.05;;;7.80;99.90;;;;;;4954114;28;20134;-61
2022/04/26 03:44:35;;;;;;;18.48;10.63;;;7.80;99.90;;;;;;4959664;28;20026;-61
2022/04/26 03:47:01;;;;;;;13.93;8.07;;;7.80;99.90;;;;;;4965760;28;20537;-61
2022/04/26 03:49:27;;;;;;;16.13;8.68;;;7.80;99.90;;;;;;4955789;28;20043;-61
2022/04/26 03:51:53;;;;;;;19.02;9.82;;;7.80;99.90;;;;;;4953390;28;20114;-61
2022/04/26 03:54:20;;;;;;;21.13;12.02;;;7.80;99.90;;;;;;4954996;28;20063;-61
2022/04/26 03:56:46;;;;;;;16.08;8.50;;;7.70;99.90;;;;;;4956050;28;20102;-61
2022/04/26 03:59:12;;;;;;;21.52;9.90;;;7.70;99.90;;;;;;4953473;28;20035;-61
2022/04/26 04:01:38;;;;;;;16.70;7.43;;;7.70;99.90;;;;;;4963159;28;20035;-61
2022/04/26 04:04:04;;;;;;;15.98;9.45;;;7.70;99.90;;;;;;4959098;28;20069;-61
2022/04/26 04:06:29;;;;;;;21.75;10.57;;;7.70;99.90;;;;;;4975095;28;20050;-61
2022/04/26 04:08:55;;;;;;;15.43;7.25;;;7.70;99.90;;;;;;4952163;28;20050;-61
2022/04/26 04:11:20;;;;;;;14.98;8.00;;;7.60;99.90;;;;;;4955230;28;20097;-61
2022/04/26 04:13:46;;;;;;;20.60;11.10;;;7.60;99.90;;;;;;4955449;28;20043;-61
2022/04/26 04:16:12;;;;;;;17.27;8.90;;;7.60;99.90;;;;;;4955426;28;20118;-61
2022/04/26 04:21:21;;;;;;;13.20;6.65;;;7.50;99.90;;;;;;4955071;28;20490;-61
2022/04/26 04:23:47;;;;;;;16.27;9.40;;;7.60;99.90;;;;;;4953122;28;20039;-61
2022/04/26 04:26:12;;;;;;;22.77;10.27;;;7.60;99.90;;;;;;4958182;28;20042;-61
2022/04/26 04:28:38;;;;;;;20.08;10.25;;;7.60;99.90;;;;;;4954774;28;20031;-61
2022/04/26 04:31:05;;;;;;;21.13;10.50;;;7.60;99.90;;;;;;4955463;29;20050;-61
2022/04/26 04:33:31;;;;;;;20.60;8.57;;;7.60;99.90;;;;;;4956639;28;20043;-61
2022/04/26 04:35:56;;;;;;;18.83;9.20;;;7.60;99.90;;;;;;4954913;28;20047;-61
2022/04/26 04:38:22;;;;;;;21.98;8.70;;;7.70;99.90;;;;;;4954976;28;20512;-61
2022/04/26 04:40:47;;;;;;;14.35;8.32;;;7.70;99.90;;;;;;4953761;28;20039;-61
2022/04/26 04:43:13;;;;;;;18.25;8.40;;;7.60;99.90;;;;;;4954498;28;20135;-61
2022/04/26 04:45:39;;;;;;;20.40;7.60;;;7.70;99.90;;;;;;4954430;28;20039;-61
2022/04/26 04:48:06;;;;;;;18.90;7.90;;;7.70;99.90;;;;;;4955290;29;20122;-61
2022/04/26 04:50:32;;;;;;;18.70;8.13;;;7.70;99.90;;;;;;4951411;28;20043;-61
2022/04/26 04:52:58;;;;;;;17.52;9.13;;;7.70;99.90;;;;;;4936898;28;20058;-61
2022/04/26 04:55:24;;;;;;;20.08;9.73;;;7.70;99.90;;;;;;4938014;29;20055;-61
2022/04/26 04:57:49;;;;;;;21.45;10.15;;;7.70;99.90;;;;;;4948665;28;20524;-61
2022/04/26 05:00:15;;;;;;;17.70;10.38;;;7.70;99.90;;;;;;4953695;28;20063;-61
2022/04/26 05:02:40;;;;;;;22.88;10.65;;;7.80;99.90;;;;;;4951823;28;20713;-61
2022/04/26 05:05:06;;;;;;;17.45;9.23;;;7.80;99.90;;;;;;4962753;28;20125;-61
2022/04/26 05:07:32;;;;;;;18.85;8.32;;;7.80;99.90;;;;;;4961137;28;20410;-62
2022/04/26 05:09:58;;;;;;;11.27;5.80;;;7.80;99.90;;;;;;4959956;28;20094;-63
2022/04/26 05:12:23;;;;;;;17.60;9.27;;;7.80;99.90;;;;;;4950877;28;20043;-61
2022/04/26 05:14:49;;;;;;;18.25;7.15;;;7.90;99.90;;;;;;4947068;28;20047;-62
2022/04/26 05:17:15;;;;;;;16.08;8.60;;;7.90;99.90;;;;;;4950231;28;20046;-61
2022/04/26 05:19:40;;;;;;;19.33;9.27;;;7.90;99.90;;;;;;4950288;28;20047;-62
2022/04/26 05:22:09;;;;;;;19.52;10.05;;;7.90;99.90;;;;;;4950642;29;20047;-61
2022/04/26 05:24:54;;;;;;;20.65;8.27;;;8.00;99.90;;;;;;4946759;28;20043;-60
2022/04/26 05:27:20;;;;;;;11.13;5.63;;;8.00;99.90;;;;;;4950345;28;20051;-62
2022/04/26 05:29:46;;;;;;;18.85;8.52;;;8.00;99.90;;;;;;4950368;28;20054;-61
2022/04/26 05:32:11;;;;;;;22.35;9.68;;;8.10;99.90;;;;;;4952898;28;20035;-61
2022/04/26 05:34:37;;;;;;;23.88;10.13;;;8.10;99.90;;;;;;4948925;28;20086;-60
2022/04/26 05:37:03;;;;;;;21.23;9.80;;;8.10;99.90;;;;;;4950382;29;20114;-61
2022/04/26 05:39:29;;;;;;;15.90;8.75;;;8.10;99.90;;;;;;4950527;29;20043;-62
2022/04/26 05:41:54;;;;;;;23.27;9.05;;;8.10;99.90;;;;;;4954861;28;20047;-61
2022/04/26 05:44:20;;;;;;;19.17;9.20;;;8.10;99.90;;;;;;4949539;28;20035;-59
2022/04/26 05:46:45;;;;;;;20.38;9.40;;;8.20;99.90;;;;;;4961745;28;20042;-60
2022/04/26 05:49:11;;;;;;;21.83;9.63;;;8.20;99.90;;;;;;4959502;28;20684;-61
2022/04/26 05:51:36;;;;;;;11.88;5.75;;;8.20;99.90;;;;;;4952718;28;20509;-61
2022/04/26 05:54:02;;;;;;;19.52;8.45;;;8.20;99.90;;;;;;4949777;29;20047;-61
2022/04/26 05:56:27;;;;;;;15.35;9.40;;;8.20;99.90;;;;;;4947641;28;20035;-60
2022/04/26 05:58:53;;;;;;;21.13;9.23;;;8.30;99.90;;;;;;4949104;28;20042;-62
2022/04/26 06:01:19;;;;;;;21.92;10.90;;;8.30;99.90;;;;;;4949214;28;20110;-62
2022/04/26 06:03:44;;;;;;;21.40;10.93;;;8.40;99.90;;;;;;4947171;28;20047;-62
2022/04/26 06:06:10;;;;;;;17.98;9.05;;;8.40;99.90;;;;;;4949520;28;20039;-62
2022/04/26 06:08:35;;;;;;;16.92;9.88;;;8.50;99.90;;;;;;4949315;28;20039;-61
2022/04/26 06:11:01;;;;;;;14.52;7.70;;;8.50;99.90;;;;;;4949529;29;20070;-62
2022/04/26 06:13:27;;;;;;;18.08;9.20;;;8.50;99.90;;;;;;4950888;28;20047;-62
2022/04/26 06:15:52;;;;;;;12.25;5.88;;;8.50;99.90;;;;;;4931680;28;20085;-62
2022/04/26 06:18:18;;;;;;;21.45;10.15;;;8.50;99.90;;;;;;4949925;29;20134;-62
2022/04/26 06:20:44;;;;;;;20.70;8.90;;;8.60;99.90;;;;;;4948881;28;20042;-62
2022/04/26 06:23:09;;;;;;;15.15;8.18;;;8.60;99.90;;;;;;4946089;28;20049;-62
2022/04/26 06:25:37;;;;;;;10.13;5.15;;;8.60;99.90;;;;;;4949107;28;20458;-62
2022/04/26 06:28:05;;;;;;;17.52;7.18;;;8.60;99.90;;;;;;4949502;28;20055;-62
2022/04/26 06:30:31;;;;;;;12.98;6.70;;;8.60;99.90;;;;;;4949021;29;20047;-62
2022/04/26 06:32:57;;;;;;;19.45;8.93;;;8.70;99.90;;;;;;4947537;28;20047;-62
2022/04/26 06:35:23;;;;;;;18.92;7.90;;;8.70;99.90;;;;;;4956694;28;20043;-62
2022/04/26 06:37:48;;;;;;;12.88;6.57;;;8.80;99.90;;;;;;4949697;28;20075;-62
2022/04/26 06:40:14;;;;;;;19.55;9.43;;;8.90;99.90;;;;;;4953475;28;20050;-62
2022/04/26 06:42:39;;;;;;;12.40;6.20;;;9.00;99.90;;;;;;4948775;28;20039;-63
2022/04/26 06:45:05;;;;;;;9.27;5.13;;;9.00;99.90;;;;;;4946880;28;20131;-61
2022/04/26 06:47:31;;;;;;;22.27;8.50;;;8.90;99.90;;;;;;4953339;28;20051;-62
2022/04/26 06:49:56;;;;;;;17.80;9.18;;;8.90;99.90;;;;;;4935223;28;20058;-62
2022/04/26 06:52:22;;;;;;;17.40;7.00;;;8.90;99.90;;;;;;4953206;29;20049;-63
2022/04/26 06:54:48;;;;;;;20.17;8.73;;;8.90;99.90;;;;;;4951524;28;20058;-62
2022/04/26 06:57:13;;;;;;;17.00;7.32;;;8.90;99.90;;;;;;4959197;28;20046;-62
2022/04/26 06:59:42;;;;;;;8.98;6.03;;;9.00;99.90;;;;;;4952532;28;20422;-62
2022/04/26 07:02:07;;;;;;;18.60;8.80;;;9.20;99.90;;;;;;4953121;29;20043;-62
2022/04/26 07:04:33;;;;;;;14.20;5.35;;;9.20;99.90;;;;;;4949422;28;20110;-62
2022/04/26 07:06:59;;;;;;;11.73;5.50;;;9.20;99.90;;;;;;4952387;28;20047;-62
2022/04/26 07:09:24;;;;;;;17.20;7.68;;;9.20;99.90;;;;;;4952725;29;20422;-62
2022/04/26 07:11:51;;;;;;;9.25;4.65;;;9.30;99.90;;;;;;4952308;28;20490;-62
2022/04/26 07:14:16;;;;;;;10.80;6.60;;;9.30;99.90;;;;;;4951696;28;20485;-61
2022/04/26 07:16:42;;;;;;;11.50;6.15;;;9.40;99.90;;;;;;4952732;28;20067;-63
2022/04/26 07:19:07;;;;;;;17.08;8.20;;;9.50;99.90;;;;;;4952674;28;20320;-62
2022/04/26 07:21:35;;;;;;;13.07;6.18;;;9.70;99.90;;;;;;4965302;28;20038;-62
2022/04/26 07:24:01;;;;;;;14.20;7.97;;;9.80;99.90;;;;;;4953314;28;20039;-62
2022/04/26 07:26:26;;;;;;;13.50;6.57;;;9.80;99.90;;;;;;4948744;28;20031;-62
2022/04/26 07:28:52;;;;;;;9.00;4.18;;;9.90;99.90;;;;;;4962936;28;20043;-62
2022/04/26 07:31:18;;;;;;;12.80;6.72;;;9.90;99.90;;;;;;4955065;28;20050;-61
2022/04/26 07:36:27;;;;;;;15.80;8.18;;;10.00;99.90;;;;;;4954552;28;20051;-61
2022/04/26 07:38:53;;;;;;;8.48;5.00;;;10.00;99.90;;;;;;4955604;28;20039;-61
2022/04/26 07:41:18;;;;;;;13.68;6.55;;;10.00;99.90;;;;;;4955461;28;20039;-61
2022/04/26 07:43:44;;;;;;;11.45;6.80;;;9.90;99.90;;;;;;4950284;28;20490;-61
2022/04/26 07:46:14;;;;;;;11.55;5.40;;;9.90;99.90;;;;;;4953824;28;20454;-61
2022/04/26 07:48:43;;;;;;;9.07;5.63;;;10.00;99.90;;;;;;4963387;28;20050;-61
2022/04/26 07:51:09;;;;;;;8.88;4.95;;;10.10;99.90;;;;;;4955678;28;20034;-61
2022/04/26 07:53:34;;;;;;;5.82;3.90;;;10.10;99.90;;;;;;4957455;28;20049;-62
2022/04/26 07:56:00;;;;;;;12.07;7.00;;;10.20;99.90;;;;;;4974272;28;20070;-62
2022/04/26 07:58:26;;;;;;;14.57;7.10;;;10.30;99.90;;;;;;4960914;28;20031;-62
2022/04/26 08:00:51;;;;;;;14.18;6.60;;;10.40;99.90;;;;;;4952460;28;20415;-62
2022/04/26 08:03:20;;;;;;;12.73;7.45;;;10.50;99.90;;;;;;4937036;29;20035;-61
2022/04/26 08:05:46;;;;;;;14.57;6.82;;;10.60;99.90;;;;;;4953878;28;20564;-61
2022/04/26 08:08:11;;;;;;;10.50;6.68;;;10.70;99.90;;;;;;4954794;29;20047;-61
2022/04/26 08:10:37;;;;;;;9.95;6.68;;;10.70;99.90;;;;;;4951227;28;20194;-61
2022/04/26 08:13:03;;;;;;;9.10;5.68;;;10.80;99.90;;;;;;4954485;28;20039;-61
2022/04/26 08:15:29;;;;;;;10.88;5.88;;;10.80;99.90;;;;;;4949504;28;20039;-61
2022/04/26 08:17:54;;;;;;;9.35;5.90;;;10.70;99.90;;;;;;4952568;28;20458;-61
2022/04/26 08:20:20;;;;;;;12.10;6.07;;;10.80;99.90;;;;;;4957723;28;20113;-61
2022/04/26 08:22:45;;;;;;;10.45;6.25;;;10.80;99.90;;;;;;4968855;28;20152;-61
2022/04/26 08:27:55;;;;;;;12.25;6.28;;;10.90;99.90;;;;;;4952317;28;20141;-61
2022/04/26 08:30:22;;;;;;;7.43;4.55;;;10.90;99.90;;;;;;4963555;28;20113;-61
2022/04/26 08:32:48;;;;;;;10.27;5.28;;;10.90;99.90;;;;;;4973958;28;20039;-62
2022/04/26 08:35:19;;;;;;;8.48;6.05;;;10.90;99.90;;;;;;4950030;28;20045;-61
2022/04/26 08:37:44;;;;;;;12.95;5.45;;;11.00;99.90;;;;;;4953942;28;20047;-61
2022/04/26 08:40:11;;;;;;;10.65;5.32;;;11.00;99.90;;;;;;4958734;28;20405;-60
2022/04/26 08:42:39;;;;;;;12.52;7.25;;;11.10;99.90;;;;;;4965624;28;20482;-61
2022/04/26 08:45:07;;;;;;;15.75;7.25;;;11.10;99.90;;;;;;4961973;28;20057;-60
2022/04/26 08:53:03;;;;;;;6.88;4.63;;;11.30;99.90;;;;;;4961785;28;20038;-62
2022/04/26 08:55:31;;;;;;;12.75;5.88;;;11.30;99.90;;;;;;4967363;28;20035;-63
2022/04/26 08:57:57;;;;;;;6.72;3.92;;;11.30;99.90;;;;;;4953003;28;20069;-63
2022/04/26 09:00:23;;;;;;;10.45;4.88;;;11.40;99.90;;;;;;4952395;29;20087;-63
2022/04/26 09:03:04;;;;;;;5.90;3.95;;;11.60;99.90;;;;;;4954894;28;20047;-63
2022/04/26 09:05:30;;;;;;;6.18;3.38;;;11.50;99.90;;;;;;4965605;28;20038;-63
2022/04/26 09:07:56;;;;;;;5.10;3.63;;;11.50;99.90;;;;;;4965010;28;20110;-63
2022/04/26 09:10:22;;;;;;;6.35;3.72;;;11.50;99.90;;;;;;4966851;28;20035;-62
2022/04/26 09:13:10;;;;;;;6.70;3.92;;;11.50;99.90;;;;;;4968174;28;20039;-64
2022/04/26 09:15:42;;;;;;;5.28;3.67;;;11.50;99.90;;;;;;4968109;28;20035;-64
2022/04/26 09:18:29;;;;;;;9.38;5.07;;;11.70;99.90;;;;;;4953576;29;20050;-64
2022/04/26 09:21:07;;;;;;;6.07;4.03;;;12.00;99.90;;;;;;4954058;28;20075;-64
2022/04/26 09:23:33;;;;;;;12.20;6.05;;;12.10;99.90;;;;;;4955456;28;20027;-64
2022/04/26 09:26:07;;;;;;;5.38;3.25;;;12.50;99.90;;;;;;4965167;28;20704;-64
2022/04/26 09:28:33;;;;;;;7.47;4.65;;;12.40;99.90;;;;;;4961435;28;20035;-64
2022/04/26 09:30:59;;;;;;;9.70;4.55;;;12.40;99.90;;;;;;4952145;28;20090;-63
2022/04/26 09:33:38;;;;;;;10.40;4.55;;;12.60;99.90;;;;;;4952868;28;20039;-64
2022/04/26 09:36:06;;;;;;;9.73;3.70;;;12.70;99.90;;;;;;4961209;28;20067;-64
2022/04/26 09:38:33;;;;;;;6.68;4.05;;;12.90;99.90;;;;;;4955018;28;20368;-64
2022/04/26 09:41:09;;;;;;;8.85;4.28;;;12.90;99.90;;;;;;4952907;28;20090;-64
2022/04/26 09:43:36;;;;;;;8.00;5.10;;;12.90;99.90;;;;;;4957175;28;20035;-64
2022/04/26 09:46:04;;;;;;;11.35;4.30;;;13.00;99.90;;;;;;4957841;28;20046;-64
2022/04/26 09:48:39;;;;;;;7.57;5.07;;;13.20;99.90;;;;;;4960678;28;20053;-64
2022/04/26 09:51:08;;;;;;;7.75;5.07;;;13.20;99.90;;;;;;4967580;28;20037;-63
2022/04/26 09:53:34;;;;;;;9.90;4.82;;;13.00;99.90;;;;;;4957279;28;20042;-64
2022/04/26 09:56:02;;;;;;;10.25;5.80;;;13.10;99.90;;;;;;4961749;28;20106;-63
2022/04/26 09:58:28;;;;;;;5.75;3.00;;;13.10;99.90;;;;;;4954494;28;20031;-64
2022/04/26 10:00:56;;;;;;;10.23;5.05;;;12.90;99.90;;;;;;4964261;28;20409;-64
2022/04/26 10:03:25;;;;;;;7.88;4.63;;;12.70;99.90;;;;;;4952716;28;20031;-63
2022/04/26 10:06:16;;;;;;;8.13;4.82;;;12.60;99.90;;;;;;4954709;28;20058;-67
2022/04/26 10:08:42;;;;;;;10.90;5.45;;;12.80;99.90;;;;;;4972801;28;20093;-63
2022/04/26 10:11:07;;;;;;;9.68;4.47;;;12.80;99.90;;;;;;4967240;28;20046;-63
2022/04/26 10:13:39;;;;;;;10.48;5.07;;;12.70;99.90;;;;;;4952933;28;20034;-63
2022/04/26 10:16:16;;;;;;;7.18;3.53;;;12.70;99.90;;;;;;4961120;28;20039;-63
2022/04/26 10:18:44;;;;;;;7.22;4.13;;;12.60;99.90;;;;;;4966299;28;20138;-63
2022/04/26 10:21:12;;;;;;;7.95;4.85;;;12.60;99.90;;;;;;4961939;28;20031;-63
2022/04/26 10:24:03;;;;;;;10.80;5.20;;;12.60;99.90;;;;;;4952904;28;20030;-63
2022/04/26 10:26:30;;;;;;;7.53;4.53;;;12.60;99.90;;;;;;4953104;28;20491;-63
2022/04/26 10:29:02;;;;;;;7.40;5.38;;;12.70;99.90;;;;;;4966207;28;20049;-63
2022/04/26 10:31:37;;;;;;;12.55;5.63;;;12.90;99.90;;;;;;4954207;28;20508;-63
2022/04/26 10:34:20;;;;;;;8.88;4.57;;;13.20;99.90;;;;;;4952604;28;20042;-63
2022/04/26 10:36:47;;;;;;;9.40;5.35;;;13.40;99.90;;;;;;4962240;28;20114;-63
2022/04/26 10:39:12;;;;;;;6.78;3.38;;;13.60;99.90;;;;;;4959083;28;20032;-63
2022/04/26 10:41:43;;;;;;;11.35;5.20;;;13.30;99.50;;;;;;4967879;28;20042;-63
2022/04/26 10:44:20;;;;;;;8.57;4.35;;;13.30;99.90;;;;;;4951502;29;20514;-63
2022/04/26 10:46:50;;;;;;;6.97;3.30;;;13.50;99.80;;;;;;4953048;28;20047;-63
2022/04/26 10:49:25;;;;;;;6.10;3.70;;;13.70;99.90;;;;;;4952914;28;20050;-63
2022/04/26 10:51:57;;;;;;;8.15;5.00;;;13.80;99.90;;;;;;4952932;28;20055;-63
2022/04/26 10:54:58;;;;;;;7.90;4.95;;;13.90;99.90;;;;;;4966489;28;20050;-64
2022/04/26 10:57:29;;;;;;;8.82;4.70;;;14.30;99.50;;;;;;4965173;28;20047;-63
2022/04/26 11:00:00;;;;;;;8.23;4.85;;;14.30;99.00;;;;;;4955904;28;20039;-63
2022/04/26 11:02:35;;;;;;;6.25;3.90;;;14.30;99.90;;;;;;4967461;28;20558;-63
2022/04/26 11:05:08;;;;;;;6.85;4.53;;;13.90;97.50;;;;;;4958857;28;20049;-63
2022/04/26 11:07:35;;;;;;;6.40;4.45;;;13.70;97.80;;;;;;4952600;28;20027;-63
2022/04/26 11:10:02;;;;;;;8.38;4.95;;;13.70;99.90;;;;;;4964554;28;20043;-63
2022/04/26 11:12:30;;;;;;;9.60;5.32;;;13.90;99.90;;;;;;4972319;28;20453;-63
2022/04/26 11:15:00;;;;;;;9.98;5.15;;;14.10;99.60;;;;;;4953327;28;20053;-63
2022/04/26 11:17:27;;;;;;;9.30;5.00;;;14.30;98.90;;;;;;4953461;28;20481;-63
2022/04/26 11:20:20;;;;;;;8.82;4.82;;;14.20;99.20;;;;;;4949896;28;20047;-63
2022/04/26 11:22:51;;;;;;;8.30;4.63;;;14.60;99.90;;;;;;4949660;28;20434;-63
2022/04/26 11:28:17;;;;;;;10.98;5.72;;;14.30;99.90;;;;;;4970409;28;20058;-63
2022/04/26 11:30:54;;;;;;;5.10;3.40;;;14.60;98.30;;;;;;4959941;28;20050;-63
2022/04/26 11:33:25;;;;;;;7.28;4.97;;;14.60;95.50;;;;;;4955890;28;20039;-64
2022/04/26 11:35:59;;;;;;;9.60;5.13;;;14.30;98.30;;;;;;4949757;28;20043;-63
2022/04/26 11:38:25;;;;;;;9.57;4.70;;;14.60;99.90;;;;;;4955982;28;20039;-63
2022/04/26 11:40:58;;;;;;;9.43;4.80;;;14.80;97.60;;;;;;4970460;28;20058;-63
2022/04/26 11:43:26;;;;;;;9.27;4.40;;;15.10;99.20;;;;;;4970244;28;20438;-63
2022/04/26 11:45:54;;;;;;;8.63;4.38;;;14.90;98.70;;;;;;4970770;28;20054;-63
2022/04/26 11:48:24;;;;;;;9.98;5.20;;;14.70;98.90;;;;;;4955953;28;20059;-63
2022/04/26 11:50:52;;;;;;;11.60;4.38;;;14.80;98.20;;;;;;4954341;28;20047;-63
2022/04/26 11:53:19;;;;;;;10.35;5.15;;;14.70;98.40;;;;;;4959469;28;20109;-63
2022/04/26 11:55:57;;;;;;;9.82;4.30;;;14.30;97.30;;;;;;4952976;28;20158;-63
2022/04/26 11:58:40;;;;;;;6.32;3.95;;;14.40;93.70;;;;;;4961888;28;20628;-63
2022/04/26 12:01:10;;;;;;;8.23;4.53;;;14.50;97.00;;;;;;4954503;29;20043;-63
2022/04/26 12:04:02;;;;;;;11.63;3.72;;;14.70;97.20;;;;;;4955561;28;20501;-63
2022/04/26 12:06:32;;;;;;;8.30;4.78;;;14.70;97.90;;;;;;4959287;28;20075;-63
2022/04/26 12:09:07;;;;;;;7.47;4.18;;;15.00;94.70;;;;;;4961152;28;20039;-63
2022/04/26 12:11:36;;;;;;;8.55;4.50;;;14.80;92.80;;;;;;4965177;28;20122;-63
2022/04/26 12:14:06;;;;;;;7.72;4.45;;;14.70;97.00;;;;;;4956540;28;20035;-63
2022/04/26 12:16:36;;;;;;;8.68;4.30;;;15.10;95.60;;;;;;4968235;28;20081;-63
2022/04/26 12:19:05;;;;;;;7.87;4.40;;;15.50;96.30;;;;;;4958442;28;20403;-63
2022/04/26 12:21:52;;;;;;;4.53;2.78;;;15.20;96.50;;;;;;4959407;28;20107;-63
2022/04/26 12:24:31;;;;;;;6.68;4.50;;;14.70;93.10;;;;;;4968477;28;20073;-63
2022/04/26 12:27:04;;;;;;;6.53;4.30;;;14.40;96.00;;;;;;4970148;28;20042;-63
2022/04/26 12:29:35;;;;;;;8.20;4.07;;;14.50;96.80;;;;;;4953627;28;20086;-63
2022/04/26 12:32:05;;;;;;;5.80;3.22;;;14.80;95.20;;;;;;4962282;28;20050;-62
2022/04/26 12:34:31;;;;;;;8.05;4.65;;;15.30;96.50;;;;;;4953733;28;20450;-62
2022/04/26 12:37:02;;;;;;;8.93;4.72;;;15.30;97.00;;;;;;4954352;29;20147;-62
2022/04/26 12:39:40;;;;;;;6.70;4.15;;;15.60;96.20;;;;;;4962929;28;20057;-62
2022/04/26 12:42:07;;;;;;;7.68;3.40;;;15.70;92.50;;;;;;4962451;28;20050;-62
2022/04/26 12:44:34;;;;;;;12.35;4.40;;;15.10;93.20;;;;;;4951242;28;20040;-62
2022/04/26 12:52:10;;;;;;;8.35;4.70;;;14.30;95.30;;;;;;5437186;23;20299;-59
2022/04/26 12:57:07;;;;;;;7.95;4.35;;;14.80;96.60;;;;;;4941129;29;20040;-59
2022/04/26 12:59:36;;;;;;;6.18;4.38;;;15.30;93.20;;;;;;4934207;29;20417;-59
2022/04/26 13:02:02;;;;;;;8.18;3.90;;;15.80;95.10;;;;;;4925591;29;20028;-59
2022/04/26 13:04:27;;;;;;;7.38;3.78;;;15.70;90.50;;;;;;4933235;29;20062;-58
2022/04/26 13:06:53;;;;;;;6.95;4.25;;;15.80;91.10;;;;;;4999055;23;20039;-59
2022/04/26 13:09:18;;;;;;;8.70;3.80;;;16.10;93.70;;;;;;4946722;28;20046;-59
2022/04/26 13:11:45;;;;;;;8.73;4.07;;;16.70;94.00;;;;;;4943551;29;20071;-60
2022/04/26 13:27:08;;;;;;;5.25;3.13;;;15.70;85.70;;;;;;5510055;23;20058;-59
2022/04/26 13:29:34;;;;;;;9.82;3.72;;;15.20;82.60;;;;;;4971263;28;20038;-59
2022/04/26 13:32:02;;;;;;;7.53;3.60;;;15.20;90.90;;;;;;4973681;28;20456;-59
2022/04/26 13:34:27;;;;;;;7.57;4.20;;;15.70;91.30;;;;;;4964172;28;20097;-59
2022/04/26 13:42:05;;;;;;;5.80;3.45;;;15.40;83.40;;;;;;5299226;23;20063;-59
2022/04/26 13:47:06;;;;;;;7.60;3.60;;;15.10;89.90;;;;;;5572265;23;20046;-59
2022/04/26 13:49:36;;;;;;;12.35;4.63;;;15.00;85.50;;;;;;4992587;28;20133;-59
2022/04/26 13:52:05;;;;;;;5.53;3.08;;;15.50;86.90;;;;;;4982465;28;20048;-59
2022/04/26 13:54:31;;;;;;;9.63;3.97;;;15.60;83.70;;;;;;4990077;28;20038;-59
2022/04/26 13:56:57;;;;;;;5.88;3.75;;;15.70;90.10;;;;;;4983216;28;20043;-59
2022/04/26 14:38:13;;;;;;;7.13;3.95;;;17.30;91.30;;;;;;5084434;23;20394;-63
2022/04/26 14:40:39;;;;;;;6.40;3.70;;;17.40;86.60;;;;;;4959349;28;20532;-63
2022/04/26 14:43:07;;;;;;;7.03;4.10;;;17.20;75.30;;;;;;4958469;28;20113;-63
2022/04/26 14:45:32;;;;;;;6.35;3.92;;;17.30;82.90;;;;;;4967664;28;20094;-63
2022/04/26 14:48:00;;;;;;;5.97;3.63;;;17.50;80.10;;;;;;4950302;28;20039;-63
2022/04/26 15:00:47;;;;;;;7.18;3.67;;;18.40;70.70;;;;;;5065896;23;20051;-60
2022/04/26 15:03:13;;;;;;;7.55;4.10;;;18.40;60.90;;;;;;4968180;28;20488;-63
2022/04/26 15:05:38;;;;;;;7.97;3.70;;;18.60;62.30;;;;;;4971710;28;20137;-63
2022/04/26 15:10:48;;;;;;;5.43;3.30;;;19.00;59.70;;;;;;4963996;28;20122;-63
2022/04/26 15:18:42;;;;;;;7.13;3.63;;;18.90;56.10;;;;;;4975518;28;20074;-62
2022/04/26 15:21:09;;;;;;;4.68;3.60;;;19.70;57.00;;;;;;4975794;28;20070;-63
2022/04/26 15:23:35;;;;;;;6.30;3.40;;;20.00;54.90;;;;;;4971194;28;20485;-63
2022/04/26 15:26:06;;;;;;;9.48;3.55;;;20.00;53.50;;;;;;4967049;28;20393;-64
2022/04/26 15:28:33;;;;;;;6.18;3.53;;;19.90;52.50;;;;;;4975669;28;20043;-64
2022/04/26 15:30:59;;;;;;;6.75;3.55;;;19.60;52.20;;;;;;4963032;28;20072;-63
2022/04/26 15:33:25;;;;;;;6.65;4.00;;;19.70;51.50;;;;;;4968385;28;20066;-63
2022/04/26 15:35:51;;;;;;;7.90;3.20;;;20.30;53.00;;;;;;4975098;28;20395;-63
2022/04/26 15:38:17;;;;;;;5.18;3.30;;;20.20;52.30;;;;;;4964308;28;20046;-63
2022/04/26 15:40:46;;;;;;;7.60;3.63;;;20.10;51.70;;;;;;4972736;28;20120;-63
2022/04/26 15:43:13;;;;;;;5.35;3.92;;;19.60;50.00;;;;;;4956864;28;20154;-64
2022/04/26 15:45:39;;;;;;;7.07;3.70;;;19.50;52.10;;;;;;4967838;28;20054;-63
2022/04/26 15:48:05;;;;;;;5.22;3.60;;;18.90;52.00;;;;;;4966956;28;20039;-63
2022/04/26 15:50:31;;;;;;;7.53;3.58;;;18.90;51.40;;;;;;4966393;28;20034;-63
2022/04/26 15:52:56;;;;;;;5.65;3.15;;;19.10;52.70;;;;;;4974185;28;20073;-63
2022/04/26 15:55:22;;;;;;;6.15;3.85;;;19.00;51.90;;;;;;4975096;28;20515;-64
2022/04/26 15:57:53;;;;;;;6.07;3.17;;;19.30;51.50;;;;;;4967499;28;20352;-64
2022/04/26 16:00:20;;;;;;;5.60;3.40;;;19.10;50.50;;;;;;4962160;28;20035;-64
2022/04/26 16:02:49;;;;;;;8.15;4.32;;;19.10;50.70;;;;;;4966263;28;20129;-64
2022/04/26 16:05:16;;;;;;;6.57;4.30;;;19.30;51.00;;;;;;4960103;28;20083;-65
2022/04/26 16:07:41;;;;;;;7.18;3.72;;;19.80;51.60;;;;;;4964359;28;20501;-64
2022/04/26 16:21:05;;;;;;;8.32;4.07;;;18.60;52.50;;;;;;4969552;28;20133;-64
2022/04/26 16:23:31;;;;;;;5.55;3.80;;;18.90;53.10;;;;;;4966847;28;20114;-62
2022/04/26 16:26:02;;;;;;;7.25;3.95;;;18.60;53.20;;;;;;4970811;28;20042;-63
2022/04/26 16:28:31;;;;;;;6.15;3.70;;;18.50;52.90;;;;;;4973975;28;20449;-63
2022/04/26 16:30:57;;;;;;;4.63;3.90;;;18.60;52.70;;;;;;4968515;28;20034;-63
2022/04/26 16:33:23;;;;;;;8.25;3.95;;;18.90;54.30;;;;;;4970344;28;20045;-63
2022/04/26 16:35:49;;;;;;;7.47;4.53;;;18.70;52.70;;;;;;4958248;28;20039;-64
2022/04/26 16:38:17;;;;;;;6.50;4.03;;;18.90;52.40;;;;;;4965106;28;20043;-63
2022/04/26 16:40:44;;;;;;;6.70;4.05;;;18.90;52.10;;;;;;4967323;28;20039;-63
2022/04/26 16:43:10;;;;;;;6.05;4.03;;;18.80;51.90;;;;;;4973579;28;20046;-63
2022/04/26 16:45:36;;;;;;;7.93;3.85;;;18.70;52.30;;;;;;4972263;28;20057;-63
2022/04/26 16:48:02;;;;;;;6.38;3.53;;;18.90;52.20;;;;;;4971137;28;20043;-63
2022/04/26 16:50:28;;;;;;;8.38;3.50;;;18.70;52.10;;;;;;4974241;28;20023;-64
2022/04/26 16:52:54;;;;;;;6.25;3.88;;;18.40;51.50;;;;;;4973954;28;20487;-63
2022/04/26 16:55:21;;;;;;;8.65;4.00;;;18.00;52.80;;;;;;4952769;28;20412;-63
2022/04/26 16:57:47;;;;;;;7.45;4.28;;;18.10;53.50;;;;;;4967483;28;20508;-63
2022/04/26 17:00:14;;;;;;;5.38;3.92;;;18.20;53.60;;;;;;4969108;28;20059;-63
2022/04/26 17:02:41;;;;;;;7.13;3.80;;;18.40;53.40;;;;;;4973540;28;20161;-63
2022/04/26 17:05:06;;;;;;;5.95;3.75;;;18.50;52.90;;;;;;4973389;28;20035;-63
2022/04/26 17:07:33;;;;;;;6.70;3.83;;;18.60;52.60;;;;;;4972570;28;20045;-63
2022/04/26 17:09:59;;;;;;;6.30;3.63;;;17.80;52.90;;;;;;4963635;28;20492;-63
2022/04/26 17:12:26;;;;;;;8.57;3.58;;;17.00;54.00;;;;;;4961216;28;20042;-64
2022/04/26 17:14:55;;;;;;;5.50;3.50;;;16.50;55.10;;;;;;4963298;28;20031;-64
2022/04/26 17:17:22;;;;;;;5.93;3.53;;;15.80;56.60;;;;;;4969216;28;20039;-63
2022/04/26 17:19:48;;;;;;;6.20;3.35;;;15.20;61.90;;;;;;4973729;28;20042;-63
2022/04/26 17:22:14;;;;;;;8.30;3.88;;;14.70;71.80;;;;;;4973844;28;20133;-63
2022/04/26 17:27:24;;;;;;;7.88;3.78;;;14.70;79.20;;;;;;4967846;28;20046;-63
2022/04/26 17:29:49;;;;;;;7.15;4.20;;;14.80;78.70;;;;;;4962931;28;20126;-63
2022/04/26 17:32:16;;;;;;;8.85;4.63;;;14.70;81.00;;;;;;4970369;28;20172;-63
2022/04/26 17:34:43;;;;;;;7.88;3.92;;;14.50;82.40;;;;;;4963786;28;20082;-63
2022/04/26 17:37:12;;;;;;;7.57;4.20;;;14.10;87.30;;;;;;4973080;28;20034;-63
2022/04/26 17:39:39;;;;;;;9.13;4.32;;;13.90;90.10;;;;;;4973491;28;20105;-63
2022/04/26 17:42:06;;;;;;;7.93;4.22;;;13.90;91.40;;;;;;4968615;28;20042;-63
2022/04/26 17:44:34;;;;;;;8.65;4.10;;;13.80;89.20;;;;;;4960341;28;20039;-63
2022/04/26 17:47:00;;;;;;;8.18;4.68;;;13.90;90.20;;;;;;4961684;28;20058;-63
2022/04/26 17:49:27;;;;;;;7.20;4.43;;;14.00;89.70;;;;;;4963280;28;20093;-63
2022/04/26 17:51:53;;;;;;;7.13;4.78;;;14.00;90.00;;;;;;4971649;28;20556;-63
2022/04/26 17:57:03;;;;;;;8.85;4.95;;;14.00;88.20;;;;;;4964491;28;20038;-63
2022/04/26 17:59:28;;;;;;;9.95;4.50;;;13.90;89.00;;;;;;4972329;28;20042;-63
2022/04/26 18:01:54;;;;;;;6.60;4.65;;;13.70;90.20;;;;;;4957786;28;20043;-63
2022/04/26 18:04:19;;;;;;;9.23;4.72;;;13.50;90.90;;;;;;4970349;28;20119;-63
2022/04/26 18:06:46;;;;;;;8.63;4.85;;;13.30;91.50;;;;;;4972789;28;20053;-63
2022/04/26 18:09:12;;;;;;;6.38;4.22;;;13.30;91.80;;;;;;4972721;28;20039;-63
2022/04/26 18:11:38;;;;;;;8.90;4.38;;;13.10;92.20;;;;;;4968191;28;20061;-63
2022/04/26 18:14:03;;;;;;;9.65;4.65;;;12.90;93.60;;;;;;4971971;28;20138;-63
2022/04/26 18:16:29;;;;;;;7.60;4.32;;;12.80;93.40;;;;;;4972318;28;20035;-63
2022/04/26 18:18:57;;;;;;;10.85;4.97;;;12.60;93.50;;;;;;4968107;28;20130;-63
2022/04/26 18:21:23;;;;;;;6.90;4.18;;;12.40;94.40;;;;;;4972132;28;20047;-63
2022/04/26 18:23:48;;;;;;;7.28;5.05;;;12.20;96.20;;;;;;4963349;28;20042;-63